createdAt,value
2022-08-30T00:03:14.713Z,17.98
2022-08-30T00:08:17.962Z,18.03
2022-08-30T00:13:22.580Z,18.03
2022-08-30T00:18:25.532Z,18.06
2022-08-30T00:23:29.092Z,18.01
2022-08-30T00:28:34.066Z,17.96
2022-08-30T00:33:37.545Z,17.89
2022-08-30T00:38:40.463Z,17.82
2022-08-30T00:43:43.417Z,17.68
2022-08-30T00:48:49.603Z,17.65
2022-08-30T00:53:57.111Z,17.69
2022-08-30T00:59:05.657Z,17.76
2022-08-30T01:04:10.202Z,17.76
2022-08-30T01:09:14.520Z,17.76
2022-08-30T01:14:18.442Z,17.75
2022-08-30T01:19:53.933Z,17.68
2022-08-30T01:25:01.444Z,17.59
2022-08-30T01:30:07.653Z,17.50
2022-08-30T01:35:14.318Z,17.48
2022-08-30T01:40:19.895Z,17.53
2022-08-30T01:45:22.940Z,17.57
2022-08-30T01:50:25.937Z,17.53
2022-08-30T01:55:28.924Z,17.52
2022-08-30T02:00:32.577Z,17.51
2022-08-30T02:05:35.561Z,17.47
2022-08-30T02:10:38.475Z,17.44
2022-08-30T02:15:42.271Z,17.39
2022-08-30T02:20:45.184Z,17.40
2022-08-30T02:25:48.107Z,17.44
2022-08-30T02:30:51.811Z,17.45
2022-08-30T02:35:56.243Z,17.44
2022-08-30T02:40:59.305Z,17.35
2022-08-30T02:46:02.570Z,17.26
2022-08-30T02:51:11.394Z,17.20
2022-08-30T02:56:15.722Z,17.18
2022-08-30T03:01:19.126Z,17.24
2022-08-30T03:06:22.076Z,17.29
2022-08-30T03:11:25.254Z,17.32
2022-08-30T03:16:28.133Z,17.32
2022-08-30T03:21:30.900Z,17.26
2022-08-30T03:26:33.651Z,17.21
2022-08-30T03:31:37.740Z,17.13
2022-08-30T03:36:56.545Z,17.03
2022-08-30T03:41:59.472Z,17.02
2022-08-30T03:47:02.486Z,17.03
2022-08-30T03:52:05.901Z,17.05
2022-08-30T03:57:08.812Z,17.12
2022-08-30T04:02:20.855Z,17.17
2022-08-30T04:07:23.678Z,17.21
2022-08-30T04:12:27.340Z,17.20
2022-08-30T04:17:30.256Z,17.17
2022-08-30T04:22:33.244Z,17.13
2022-08-30T04:27:36.292Z,17.12
2022-08-30T04:32:40.278Z,17.20
2022-08-30T04:37:43.230Z,17.35
2022-08-30T04:42:46.550Z,17.43
2022-08-30T04:47:49.588Z,17.46
2022-08-30T04:52:52.521Z,17.46
2022-08-30T04:57:56.686Z,17.45
2022-08-30T05:03:00.826Z,17.46
2022-08-30T05:08:04.363Z,17.50
2022-08-30T05:13:08.107Z,17.60
2022-08-30T05:18:14.241Z,17.72
2022-08-30T05:23:17.811Z,17.80
2022-08-30T05:28:24.312Z,17.86
2022-08-30T05:33:29.549Z,17.89
2022-08-30T05:38:32.467Z,17.92
2022-08-30T05:43:36.640Z,18.00
2022-08-30T05:48:40.895Z,18.14
2022-08-30T05:53:45.140Z,18.28
2022-08-30T05:58:48.496Z,18.42
2022-08-30T06:03:55.254Z,18.50
2022-08-30T06:08:58.737Z,18.54
2022-08-30T06:14:02.632Z,18.56
2022-08-30T06:19:08.616Z,18.62
2022-08-30T06:24:12.456Z,18.71
2022-08-30T06:29:19.015Z,18.82
2022-08-30T06:34:22.030Z,18.91
2022-08-30T06:39:24.912Z,18.99
2022-08-30T06:44:27.981Z,19.03
2022-08-30T06:49:33.705Z,19.04
2022-08-30T06:54:36.646Z,19.01
2022-08-30T06:59:40.268Z,19.01
2022-08-30T07:04:43.214Z,19.07
2022-08-30T07:09:46.287Z,19.06
2022-08-30T07:14:49.535Z,19.15
2022-08-30T07:19:52.565Z,19.32
2022-08-30T07:24:55.316Z,19.51
2022-08-30T07:29:58.941Z,19.68
2022-08-30T07:35:01.889Z,19.83
2022-08-30T07:40:05.309Z,20.00
2022-08-30T07:45:10.413Z,20.11
2022-08-30T07:50:13.990Z,20.24
2022-08-30T07:55:17.220Z,20.40
2022-08-30T08:00:20.618Z,20.52
2022-08-30T08:05:24.903Z,20.59
2022-08-30T08:10:28.086Z,20.68
2022-08-30T08:15:33.013Z,20.61
2022-08-30T08:20:36.422Z,20.53
2022-08-30T08:25:41.227Z,20.64
2022-08-30T08:30:48.147Z,20.73
2022-08-30T08:35:51.434Z,20.69
2022-08-30T08:41:10.623Z,20.62
2022-08-30T08:46:28.599Z,20.38
2022-08-30T08:51:54.570Z,20.26
2022-08-30T08:56:57.559Z,20.32
2022-08-30T09:02:03.272Z,20.22
2022-08-30T09:07:20.385Z,20.19
2022-08-30T09:12:23.336Z,20.31
2022-08-30T09:17:26.183Z,20.46
2022-08-30T09:22:46.668Z,20.62
2022-08-30T09:27:52.796Z,20.66
2022-08-30T09:33:22.657Z,20.77
2022-08-30T09:38:34.452Z,20.93
2022-08-30T09:43:37.326Z,21.11
2022-08-30T09:48:47.560Z,21.16
2022-08-30T09:54:26.335Z,21.04
2022-08-30T10:00:03.891Z,21.16
2022-08-30T10:05:48.619Z,21.33
2022-08-30T10:11:19.510Z,21.53
2022-08-30T10:17:13.599Z,21.53
2022-08-30T10:22:30.351Z,21.36
2022-08-30T10:27:45.991Z,21.37
2022-08-30T10:33:06.831Z,21.31
2022-08-30T10:38:46.839Z,21.35
2022-08-30T10:44:13.726Z,21.29
2022-08-30T10:49:27.707Z,21.12
2022-08-30T10:54:47.592Z,20.93
2022-08-30T10:59:58.660Z,20.86
2022-08-30T11:05:36.272Z,20.84
2022-08-30T11:10:58.455Z,20.89
2022-08-30T11:16:11.268Z,20.97
2022-08-30T11:21:38.328Z,21.04
2022-08-30T11:26:48.519Z,21.08
2022-08-30T11:31:51.713Z,21.18
2022-08-30T11:36:55.162Z,21.33
2022-08-30T11:42:32.078Z,21.43
2022-08-30T11:47:48.344Z,21.37
2022-08-30T11:53:03.208Z,21.26
2022-08-30T11:58:20.523Z,21.18
2022-08-30T12:03:33.890Z,21.13
2022-08-30T12:08:55.115Z,21.10
2022-08-30T12:14:08.243Z,21.13
2022-08-30T12:19:21.253Z,21.17
2022-08-30T12:24:51.746Z,21.24
2022-08-30T12:30:03.059Z,21.25
2022-08-30T12:35:07.589Z,21.20
2022-08-30T12:40:23.152Z,21.12
2022-08-30T12:45:43.085Z,21.04
2022-08-30T12:50:53.956Z,21.00
2022-08-30T12:56:12.811Z,20.94
2022-08-30T13:01:27.573Z,20.91
2022-08-30T13:06:52.787Z,20.89
2022-08-30T13:11:56.712Z,20.88
2022-08-30T13:17:09.806Z,20.87
2022-08-30T13:22:28.079Z,20.91
2022-08-30T13:27:36.956Z,20.92
2022-08-30T13:32:40.398Z,20.89
2022-08-30T13:37:50.090Z,20.85
2022-08-30T13:42:53.964Z,20.89
2022-08-30T13:47:56.767Z,20.95
2022-08-30T13:52:59.647Z,20.91
2022-08-30T13:58:02.977Z,20.89
2022-08-30T14:03:05.903Z,20.85
2022-08-30T14:13:35.562Z,20.77
2022-08-30T14:18:39.913Z,20.72
2022-08-30T14:23:42.937Z,20.67
2022-08-30T14:28:46.498Z,20.59
2022-08-30T14:33:54.637Z,20.51
2022-08-30T14:38:58.378Z,20.48
2022-08-30T14:44:01.393Z,20.44
2022-08-30T14:49:05.777Z,20.37
2022-08-30T14:54:10.394Z,20.37
2022-08-30T14:59:14.240Z,20.27
2022-08-30T15:04:17.802Z,20.21
2022-08-30T15:09:26.025Z,20.20
2022-08-30T15:14:31.535Z,20.18
2022-08-30T15:19:34.473Z,20.17
2022-08-30T15:24:37.417Z,20.16
2022-08-30T15:29:40.312Z,20.14
2022-08-30T15:34:43.675Z,20.13
2022-08-30T15:39:58.102Z,20.13
2022-08-30T15:45:01.863Z,20.15
2022-08-30T15:50:07.320Z,20.15
2022-08-30T15:55:10.455Z,20.12
2022-08-30T16:00:14.781Z,20.04
2022-08-30T16:05:18.026Z,19.99
2022-08-30T16:10:21.366Z,19.92
2022-08-30T16:15:24.447Z,19.87
2022-08-30T16:20:27.804Z,19.82
2022-08-30T16:25:40.841Z,19.86
2022-08-30T16:30:44.498Z,19.88
2022-08-30T16:35:57.262Z,19.90
2022-08-30T16:41:09.110Z,19.94
2022-08-30T16:46:17.668Z,19.91
2022-08-30T16:51:25.155Z,19.88
2022-08-30T16:56:31.002Z,19.88
2022-08-30T17:01:42.375Z,19.85
2022-08-30T17:06:47.955Z,19.77
2022-08-30T17:11:53.214Z,19.73
2022-08-30T17:17:00.654Z,19.70
2022-08-30T17:22:04.266Z,19.63
2022-08-30T17:27:07.681Z,19.58
2022-08-30T17:32:10.803Z,19.58
2022-08-30T17:37:16.377Z,19.56
2022-08-30T17:42:19.997Z,19.49
2022-08-30T17:47:23.410Z,19.42
2022-08-30T17:52:28.108Z,19.37
2022-08-30T17:57:31.509Z,19.34
2022-08-30T18:02:34.466Z,19.30
2022-08-30T18:07:37.330Z,19.28
2022-08-30T18:12:40.256Z,19.23
2022-08-30T18:17:47.862Z,19.19
2022-08-30T18:22:50.759Z,19.20
2022-08-30T18:27:59.016Z,19.26
2022-08-30T18:33:02.766Z,19.30
2022-08-30T18:38:06.008Z,19.29
2022-08-30T18:43:10.083Z,19.27
2022-08-30T18:48:14.455Z,19.26
2022-08-30T18:53:28.349Z,19.24
2022-08-30T18:58:32.063Z,19.20
2022-08-30T19:03:35.659Z,19.21
2022-08-30T19:08:41.482Z,19.16
2022-08-30T19:13:48.849Z,19.11
2022-08-30T19:18:54.505Z,19.13
2022-08-30T19:23:57.489Z,19.17
2022-08-30T19:29:01.736Z,19.21
2022-08-30T19:34:05.297Z,19.21
2022-08-30T19:39:10.094Z,19.17
2022-08-30T19:44:13.260Z,19.12
2022-08-30T19:49:16.363Z,19.08
2022-08-30T19:54:19.640Z,18.99
2022-08-30T19:59:22.849Z,18.94
2022-08-30T20:04:26.970Z,18.95
2022-08-30T20:09:29.894Z,18.92
2022-08-30T20:14:32.845Z,18.93
2022-08-30T20:19:36.151Z,18.98
2022-08-30T20:24:43.433Z,19.09
2022-08-30T20:29:46.967Z,19.18
2022-08-30T20:34:50.376Z,19.24
2022-08-30T20:39:57.311Z,19.24
2022-08-30T20:45:00.493Z,19.13
2022-08-30T20:50:13.568Z,19.03
2022-08-30T20:55:17.551Z,18.96
2022-08-30T21:00:20.696Z,18.90
2022-08-30T21:05:24.805Z,18.86
2022-08-30T21:10:28.089Z,18.86
2022-08-30T21:15:37.704Z,18.82
2022-08-30T21:20:41.828Z,18.82
2022-08-30T21:25:44.755Z,18.81
2022-08-30T21:30:47.689Z,18.81
2022-08-30T21:36:09.602Z,18.79
2022-08-30T21:41:13.635Z,18.73
2022-08-30T21:46:17.923Z,18.65
2022-08-30T21:51:21.689Z,18.59
2022-08-30T21:56:25.112Z,18.58
2022-08-30T22:01:30.717Z,18.61
2022-08-30T22:06:36.054Z,18.66
2022-08-30T22:11:39.528Z,18.68
2022-08-30T22:16:42.618Z,18.64
2022-08-30T22:21:48.083Z,18.59
2022-08-30T22:26:51.689Z,18.55
2022-08-30T22:31:54.733Z,18.50
2022-08-30T22:36:57.701Z,18.45
2022-08-30T22:42:00.885Z,18.45
2022-08-30T22:47:03.858Z,18.48
2022-08-30T22:52:06.811Z,18.49
2022-08-30T22:57:09.814Z,18.44
2022-08-30T23:02:12.818Z,18.39
2022-08-30T23:07:15.705Z,18.35
2022-08-30T23:12:18.668Z,18.29
2022-08-30T23:17:22.406Z,18.27
2022-08-30T23:22:31.676Z,18.28
2022-08-30T23:27:53.506Z,18.34
2022-08-30T23:33:14.840Z,18.36
2022-08-30T23:38:36.292Z,18.28
2022-08-30T23:43:58.249Z,18.28
2022-08-30T23:49:19.905Z,18.21
2022-08-30T23:54:43.240Z,18.16
